Other Surface Observations
Issued by NWS Missoula, MT

Home | Current Version | Previous Version | Text Only | Print | Product List | Glossary On
Versions: 1 2 3 4 5 6 7 8 9 10 11 12 13 14 15 16 17 18 19 20 21 22 23 24 25 26 27 28 29 30 31 32 33 34 35 36 37 38 39 40 41 42 43 44 45 46 47 48 49 50
000
SXUS55 KMSO 211103
OSOMSO
MONTANA AWOS SUMMARY
NATIONAL WEATHER SERVICE MISSOULA MT
502 AM MDT TUE NOV 21 2017

Montana AWOS Reports

EKALAKA     |K97M 211055Z AUTO 31010G15KT 40SM M09/M16 A3013 RMK AO1 T10931155
SCOBEY      |K9S2 211055Z AUTO 31009G13KT 40SM M18/M25 A3023 RMK AO1 T11821249
PLAINS      |KS34 211055Z AUTO 00000KT 1/4SM FG 01/M01 A3016 RMK AO1 T00061010
TWIN BRIDGES|K7S1 211055Z AUTO 00000KT 40SM M01/M05 A3012 RMK AO1 T10101049




USA.gov is the U.S. government's official web portal to all federal, state and local government web resources and services.